Time;durP1;ratioP1;P1;durP2;ratioP2;P2;SDS_P1;SDS_P2;PMS_P1;PMS_P2;Temp;Humidity;BMP_temperature;BMP_pressure;BME280_temperature;BME280_humidity;BME280_pressure;Samples;Min_cycle;Max_cycle;Signal;HPM_P1;HPM_P2
2020/12/12 00:00:56;;;;;;;1.67;1.57;;;4.90;98.20;;;;;;5039919;28;20495;-76
2020/12/12 00:03:22;;;;;;;1.60;1.30;;;4.90;98.20;;;;;;5044210;28;20458;-76
2020/12/12 00:05:48;;;;;;;1.60;1.30;;;4.90;98.20;;;;;;5054680;28;20494;-75
2020/12/12 00:08:15;;;;;;;1.60;1.40;;;4.90;98.20;;;;;;5046587;28;20480;-76
2020/12/12 00:10:42;;;;;;;1.60;1.40;;;4.90;98.20;;;;;;5044113;28;20491;-75
2020/12/12 00:13:09;;;;;;;1.63;1.47;;;4.90;98.20;;;;;;5044209;28;20530;-76
2020/12/12 00:15:35;;;;;;;1.60;1.40;;;4.90;98.20;;;;;;5053017;28;20460;-76
2020/12/12 00:18:02;;;;;;;1.60;1.50;;;4.90;98.20;;;;;;5049791;28;20468;-75
2020/12/12 00:20:28;;;;;;;1.60;1.50;;;5.00;98.20;;;;;;5063787;28;20462;-76
2020/12/12 00:22:58;;;;;;;1.60;1.20;;;5.00;98.20;;;;;;5050860;28;20455;-76
2020/12/12 00:25:24;;;;;;;1.60;1.30;;;5.00;98.20;;;;;;5047125;28;20837;-76
2020/12/12 00:27:51;;;;;;;1.73;1.63;;;5.00;98.20;;;;;;5048448;28;20482;-75
2020/12/12 00:30:18;;;;;;;3.10;2.90;;;5.00;98.20;;;;;;5045222;28;20483;-76
2020/12/12 00:32:44;;;;;;;1.60;1.30;;;5.00;98.20;;;;;;5053486;28;20464;-75
2020/12/12 00:35:10;;;;;;;1.77;1.67;;;5.00;98.20;;;;;;5048334;28;20451;-76
2020/12/12 00:37:37;;;;;;;1.60;1.30;;;5.00;98.20;;;;;;5045037;28;20500;-76
2020/12/12 00:40:03;;;;;;;1.60;1.30;;;5.10;98.20;;;;;;5052193;28;20481;-75
2020/12/12 00:42:30;;;;;;;1.70;1.60;;;5.10;98.20;;;;;;5050098;28;20456;-75
2020/12/12 00:44:57;;;;;;;1.63;1.53;;;5.10;98.20;;;;;;5045376;28;20478;-76
2020/12/12 00:47:23;;;;;;;1.60;1.40;;;5.10;98.20;;;;;;5054838;28;20849;-75
2020/12/12 00:49:50;;;;;;;1.60;1.30;;;5.10;98.20;;;;;;5054020;28;20569;-75
2020/12/12 00:52:16;;;;;;;1.60;1.30;;;5.10;98.20;;;;;;5058943;28;20817;-75
2020/12/12 00:54:42;;;;;;;1.60;1.40;;;5.10;98.20;;;;;;5052178;28;20990;-75
2020/12/12 00:57:10;;;;;;;1.60;1.40;;;5.20;98.20;;;;;;5052309;28;20489;-75
2020/12/12 00:59:36;;;;;;;1.70;1.30;;;5.20;98.20;;;;;;5050466;28;20478;-76
2020/12/12 01:02:04;;;;;;;1.60;1.47;;;5.20;98.20;;;;;;5056941;28;20502;-76
2020/12/12 01:04:30;;;;;;;1.60;1.33;;;5.20;98.20;;;;;;5056665;28;20459;-75
2020/12/12 01:06:56;;;;;;;1.60;1.50;;;5.20;98.20;;;;;;5050848;28;20480;-75
2020/12/12 01:09:23;;;;;;;1.60;1.40;;;5.20;98.20;;;;;;5050987;28;21039;-75
2020/12/12 01:11:51;;;;;;;3.40;3.20;;;5.20;98.20;;;;;;5063373;28;20470;-76
2020/12/12 01:14:18;;;;;;;1.60;1.40;;;5.20;98.20;;;;;;5057675;28;20475;-75
2020/12/12 01:16:44;;;;;;;1.60;1.30;;;5.20;98.20;;;;;;5051095;28;20466;-76
2020/12/12 01:19:11;;;;;;;1.63;1.30;;;5.30;98.20;;;;;;5049336;28;20518;-76
2020/12/12 01:21:38;;;;;;;1.60;1.40;;;5.30;98.20;;;;;;5052766;28;20545;-75
2020/12/12 01:24:04;;;;;;;1.60;1.40;;;5.30;98.20;;;;;;5043082;28;20496;-75
2020/12/12 01:26:31;;;;;;;1.60;1.40;;;5.30;98.20;;;;;;5046471;28;20893;-76
2020/12/12 01:28:59;;;;;;;1.60;1.40;;;5.30;98.20;;;;;;5043986;28;20499;-75
2020/12/12 01:31:25;;;;;;;2.00;1.83;;;5.40;98.20;;;;;;5056208;28;20459;-76
2020/12/12 01:33:52;;;;;;;1.60;1.40;;;5.40;98.20;;;;;;5052004;28;20459;-74
2020/12/12 01:36:19;;;;;;;1.60;1.40;;;5.40;98.20;;;;;;5046275;28;20883;-76
2020/12/12 01:38:46;;;;;;;1.60;1.33;;;5.40;98.20;;;;;;5055257;28;20487;-76
2020/12/12 01:41:12;;;;;;;1.67;1.50;;;5.40;98.20;;;;;;5048893;28;20458;-75
2020/12/12 01:43:39;;;;;;;1.60;1.40;;;5.40;98.20;;;;;;5054293;28;20635;-75
2020/12/12 01:46:05;;;;;;;1.60;1.30;;;5.50;98.20;;;;;;5055510;28;20468;-76
2020/12/12 01:48:32;;;;;;;1.70;1.53;;;5.50;98.20;;;;;;5056883;28;20538;-75
2020/12/12 01:50:58;;;;;;;1.80;1.70;;;5.50;98.20;;;;;;5063633;28;20487;-76
2020/12/12 01:53:28;;;;;;;1.60;1.30;;;5.50;98.20;;;;;;5056822;28;20844;-76
2020/12/12 01:55:54;;;;;;;1.60;1.40;;;5.50;98.20;;;;;;5049253;28;20463;-75
2020/12/12 01:58:21;;;;;;;1.60;1.40;;;5.50;98.20;;;;;;5047014;28;20468;-76
2020/12/12 02:00:47;;;;;;;1.60;1.30;;;5.50;98.20;;;;;;5049601;28;20463;-76
2020/12/12 02:03:14;;;;;;;1.60;1.30;;;5.50;98.20;;;;;;5045516;28;20463;-76
2020/12/12 02:05:42;;;;;;;1.60;1.30;;;5.50;98.20;;;;;;5048047;28;20471;-75
2020/12/12 02:08:13;;;;;;;1.60;1.30;;;5.60;98.20;;;;;;5048600;28;21017;-75
2020/12/12 02:10:42;;;;;;;1.70;1.60;;;5.60;98.20;;;;;;5048180;28;20602;-75
2020/12/12 02:13:10;;;;;;;1.60;1.30;;;5.60;98.20;;;;;;5049886;28;20622;-75
2020/12/12 02:15:38;;;;;;;5.97;5.20;;;5.60;98.20;;;;;;5050149;28;20462;-76
2020/12/12 02:18:05;;;;;;;1.60;1.37;;;5.60;98.20;;;;;;5048761;28;20491;-75
2020/12/12 02:20:32;;;;;;;1.60;1.40;;;5.60;98.20;;;;;;5059153;28;20948;-75
2020/12/12 02:22:59;;;;;;;1.60;1.30;;;5.60;98.20;;;;;;5060552;28;20455;-76
2020/12/12 02:25:26;;;;;;;1.60;1.43;;;5.60;98.20;;;;;;5045252;28;20460;-75
2020/12/12 02:27:55;;;;;;;1.60;1.30;;;5.60;98.20;;;;;;5048943;28;20518;-75
2020/12/12 02:30:23;;;;;;;1.60;1.40;;;5.70;98.20;;;;;;5049811;28;20551;-76
2020/12/12 02:32:50;;;;;;;1.60;1.40;;;5.70;98.20;;;;;;5045825;28;20471;-76
2020/12/12 02:35:17;;;;;;;1.70;1.40;;;5.70;98.20;;;;;;5052761;28;20455;-76
2020/12/12 02:37:44;;;;;;;1.60;1.40;;;5.70;98.20;;;;;;5048600;28;20486;-75
2020/12/12 02:40:11;;;;;;;1.60;1.30;;;5.70;98.20;;;;;;5047838;28;20495;-76
2020/12/12 02:42:37;;;;;;;1.70;1.60;;;5.80;98.20;;;;;;5058019;28;20460;-75
2020/12/12 02:45:04;;;;;;;1.60;1.40;;;5.80;98.20;;;;;;5059262;28;20467;-75
2020/12/12 02:47:34;;;;;;;1.60;1.37;;;5.80;98.20;;;;;;5057667;28;20839;-75
2020/12/12 02:50:10;;;;;;;1.60;1.40;;;5.80;98.20;;;;;;5051959;28;20483;-76
2020/12/12 02:52:37;;;;;;;1.60;1.50;;;5.80;98.20;;;;;;5050874;28;20460;-75
2020/12/12 02:55:05;;;;;;;1.60;1.30;;;5.80;98.20;;;;;;5056426;28;20462;-75
2020/12/12 02:57:32;;;;;;;1.60;1.50;;;5.90;98.20;;;;;;5046573;28;20487;-76
2020/12/12 02:59:58;;;;;;;1.60;1.20;;;5.90;98.20;;;;;;5045656;28;20463;-76
2020/12/12 03:02:25;;;;;;;1.63;1.50;;;5.90;98.20;;;;;;5049806;28;20475;-76
2020/12/12 03:04:51;;;;;;;1.60;1.40;;;5.90;98.20;;;;;;5053352;28;20462;-75
2020/12/12 03:07:18;;;;;;;1.60;1.40;;;5.90;98.20;;;;;;5044496;28;20541;-75
2020/12/12 03:09:45;;;;;;;1.60;1.30;;;5.90;98.20;;;;;;5053203;28;20509;-75
2020/12/12 03:12:12;;;;;;;1.60;1.37;;;5.90;98.20;;;;;;5053441;28;20455;-75
2020/12/12 03:14:39;;;;;;;1.60;1.40;;;5.90;98.20;;;;;;5056282;28;20837;-75
2020/12/12 03:17:09;;;;;;;1.60;1.30;;;6.00;98.20;;;;;;5051887;28;20467;-75
2020/12/12 03:19:36;;;;;;;1.60;1.30;;;6.00;98.20;;;;;;5044334;28;20858;-75
2020/12/12 03:22:03;;;;;;;1.60;1.30;;;6.00;98.20;;;;;;5043303;28;20941;-75
2020/12/12 03:24:29;;;;;;;1.60;1.30;;;6.00;98.20;;;;;;5037431;28;20514;-75
2020/12/12 03:26:55;;;;;;;1.60;1.30;;;6.00;98.20;;;;;;5043726;28;20464;-75
2020/12/12 03:29:23;;;;;;;1.60;1.27;;;6.00;98.20;;;;;;5051042;28;20698;-75
2020/12/12 03:31:51;;;;;;;1.60;1.50;;;6.00;98.20;;;;;;5046307;28;20471;-76
2020/12/12 03:34:17;;;;;;;2.17;1.97;;;6.00;98.20;;;;;;5054743;28;20987;-75
2020/12/12 03:36:44;;;;;;;1.60;1.40;;;6.00;98.20;;;;;;5048670;28;20614;-75
2020/12/12 03:39:10;;;;;;;1.60;1.30;;;6.00;98.20;;;;;;5047696;28;20480;-75
2020/12/12 03:41:37;;;;;;;1.60;1.30;;;6.00;98.20;;;;;;5043127;28;20470;-75
2020/12/12 03:44:03;;;;;;;1.60;1.33;;;6.00;98.20;;;;;;5055710;28;20474;-75
2020/12/12 03:46:30;;;;;;;1.60;1.30;;;6.00;98.20;;;;;;5062274;28;20796;-76
2020/12/12 03:48:57;;;;;;;1.60;1.30;;;6.00;98.20;;;;;;5048091;28;20496;-76
2020/12/12 03:51:23;;;;;;;1.60;1.43;;;6.00;98.20;;;;;;5054610;28;20487;-75
2020/12/12 03:53:50;;;;;;;2.73;2.53;;;6.00;98.20;;;;;;5045969;28;20748;-76
2020/12/12 03:56:16;;;;;;;1.60;1.40;;;6.00;98.20;;;;;;5044859;28;20455;-76
2020/12/12 03:58:43;;;;;;;1.60;1.40;;;6.00;98.20;;;;;;5049794;28;20916;-76
2020/12/12 04:01:09;;;;;;;1.60;1.33;;;6.00;98.20;;;;;;5052582;28;20456;-75
2020/12/12 04:03:35;;;;;;;1.60;1.30;;;6.10;98.20;;;;;;5054939;28;20459;-75
2020/12/12 04:06:03;;;;;;;1.60;1.30;;;6.10;98.20;;;;;;5053229;28;20705;-76
2020/12/12 04:08:29;;;;;;;1.60;1.30;;;6.10;98.20;;;;;;5046900;28;21068;-76
2020/12/12 04:11:00;;;;;;;1.63;1.40;;;6.10;98.20;;;;;;5048594;28;20508;-75
2020/12/12 04:13:26;;;;;;;1.60;1.30;;;6.10;98.20;;;;;;5048262;28;20447;-75
2020/12/12 04:15:53;;;;;;;1.60;1.30;;;6.10;98.20;;;;;;5057199;28;20450;-75
2020/12/12 04:18:20;;;;;;;1.60;1.40;;;6.10;98.20;;;;;;5057165;28;20510;-75
2020/12/12 04:20:46;;;;;;;1.60;1.30;;;6.10;98.20;;;;;;5054060;28;20508;-75
2020/12/12 04:23:14;;;;;;;1.60;1.40;;;6.10;98.20;;;;;;5050869;28;20463;-76
2020/12/12 04:25:41;;;;;;;1.60;1.33;;;6.10;98.20;;;;;;5049276;28;20498;-76
2020/12/12 04:28:07;;;;;;;1.97;1.87;;;6.10;98.20;;;;;;5054245;28;20487;-76
2020/12/12 04:30:34;;;;;;;1.60;1.20;;;6.10;98.20;;;;;;5053213;28;20487;-76
2020/12/12 04:33:00;;;;;;;1.60;1.20;;;6.10;98.20;;;;;;5055205;28;20459;-74
2020/12/12 04:35:27;;;;;;;1.60;1.40;;;6.10;98.20;;;;;;5059979;28;20467;-74
2020/12/12 04:37:53;;;;;;;1.60;1.30;;;6.10;98.20;;;;;;5043793;28;20514;-75
2020/12/12 04:40:22;;;;;;;1.60;1.27;;;6.10;98.20;;;;;;5042623;28;20495;-75
2020/12/12 04:42:49;;;;;;;1.60;1.37;;;6.10;98.20;;;;;;5050434;28;20463;-76
2020/12/12 04:45:20;;;;;;;1.60;1.30;;;6.00;98.20;;;;;;5057654;28;20455;-75
2020/12/12 04:47:49;;;;;;;1.60;1.40;;;6.00;98.20;;;;;;5061772;28;20515;-75
2020/12/12 04:50:17;;;;;;;1.60;1.30;;;6.00;98.20;;;;;;5050685;28;20937;-74
2020/12/12 04:52:43;;;;;;;1.60;1.30;;;6.00;98.20;;;;;;5052778;28;20501;-75
2020/12/12 04:55:11;;;;;;;1.60;1.30;;;6.00;98.20;;;;;;5050815;28;20452;-75
2020/12/12 04:57:39;;;;;;;1.60;1.30;;;6.00;98.20;;;;;;5049839;28;20474;-75
2020/12/12 05:00:10;;;;;;;1.60;1.30;;;6.00;98.20;;;;;;5049992;28;20494;-75
2020/12/12 05:02:36;;;;;;;1.60;1.30;;;6.00;98.20;;;;;;5051493;28;20463;-75
2020/12/12 05:05:03;;;;;;;1.60;1.40;;;5.90;98.20;;;;;;5055989;28;20478;-74
2020/12/12 05:07:30;;;;;;;1.60;1.30;;;5.90;98.20;;;;;;5055794;28;20683;-74
2020/12/12 05:09:56;;;;;;;1.60;1.20;;;5.90;98.20;;;;;;5053176;28;20479;-76
2020/12/12 05:12:23;;;;;;;1.60;1.20;;;5.90;98.20;;;;;;5058421;28;20496;-75
2020/12/12 05:14:51;;;;;;;1.60;1.20;;;5.90;98.20;;;;;;5059232;28;20459;-74
2020/12/12 05:17:19;;;;;;;1.60;1.30;;;5.90;98.20;;;;;;5050039;28;20455;-75
2020/12/12 05:19:48;;;;;;;1.60;1.40;;;5.90;98.20;;;;;;5043410;28;20459;-74
2020/12/12 05:22:15;;;;;;;1.60;1.30;;;5.90;98.20;;;;;;5046742;28;20452;-74
2020/12/12 05:24:41;;;;;;;1.60;1.30;;;5.90;98.20;;;;;;5047593;28;20448;-74
2020/12/12 05:27:08;;;;;;;1.67;1.50;;;5.90;98.20;;;;;;5048245;28;20466;-74
2020/12/12 05:29:35;;;;;;;1.60;1.30;;;5.90;98.20;;;;;;5048472;28;20516;-75
2020/12/12 05:32:03;;;;;;;1.60;1.30;;;5.90;98.20;;;;;;5055379;28;20459;-74
2020/12/12 05:34:30;;;;;;;1.60;1.27;;;5.90;98.20;;;;;;5050018;28;20456;-75
2020/12/12 05:36:56;;;;;;;2.57;1.80;;;5.90;98.20;;;;;;5043683;28;20498;-74
2020/12/12 05:39:23;;;;;;;1.60;1.40;;;5.90;98.20;;;;;;5057434;28;20506;-75
2020/12/12 05:41:50;;;;;;;1.60;1.30;;;5.90;98.20;;;;;;5060098;28;20446;-75
2020/12/12 05:44:18;;;;;;;1.60;1.30;;;5.90;98.20;;;;;;5050313;28;20468;-75
2020/12/12 05:46:45;;;;;;;1.60;1.30;;;5.90;98.20;;;;;;5045680;28;20466;-74
2020/12/12 05:49:13;;;;;;;1.60;1.30;;;5.90;98.20;;;;;;5046220;28;20493;-74
2020/12/12 05:51:42;;;;;;;1.60;1.30;;;5.90;98.20;;;;;;5040253;28;20464;-74
2020/12/12 05:54:09;;;;;;;1.63;1.30;;;5.90;98.20;;;;;;5040820;28;20559;-75
2020/12/12 05:56:36;;;;;;;1.60;1.37;;;6.00;98.20;;;;;;5038488;28;20460;-75
2020/12/12 05:59:08;;;;;;;2.17;2.03;;;6.00;98.20;;;;;;5043367;28;20483;-75
2020/12/12 06:01:41;;;;;;;1.60;1.40;;;5.90;98.20;;;;;;5040130;28;20456;-75
2020/12/12 06:04:09;;;;;;;1.60;1.30;;;5.90;98.20;;;;;;5043113;28;20460;-75
2020/12/12 06:06:44;;;;;;;1.60;1.30;;;5.90;98.20;;;;;;5052893;28;20482;-76
2020/12/12 06:09:14;;;;;;;1.60;1.50;;;5.90;98.20;;;;;;5043645;28;20487;-75
2020/12/12 06:11:44;;;;;;;1.60;1.40;;;5.90;98.20;;;;;;5054317;28;20973;-75
2020/12/12 06:14:16;;;;;;;1.60;1.30;;;5.90;98.20;;;;;;5042101;28;20482;-75
2020/12/12 06:16:43;;;;;;;1.60;1.40;;;5.90;98.20;;;;;;5032685;28;20497;-76
2020/12/12 06:19:12;;;;;;;1.60;1.50;;;5.90;98.20;;;;;;5044002;28;20999;-75
2020/12/12 06:21:41;;;;;;;1.60;1.30;;;5.90;98.20;;;;;;5045105;28;20890;-75
2020/12/12 06:24:10;;;;;;;1.60;1.40;;;5.90;98.20;;;;;;5046019;28;20452;-75
2020/12/12 06:26:55;;;;;;;1.60;1.37;;;5.90;98.20;;;;;;5048823;28;20542;-75
2020/12/12 06:29:24;;;;;;;2.27;2.07;;;6.00;98.20;;;;;;5051380;28;21029;-76
2020/12/12 06:31:51;;;;;;;1.60;1.37;;;6.00;98.20;;;;;;5048944;28;20514;-76
2020/12/12 06:34:38;;;;;;;1.60;1.30;;;6.00;98.20;;;;;;5035253;28;20468;-76
2020/12/12 06:37:08;;;;;;;1.60;1.30;;;6.00;98.20;;;;;;5041165;28;21175;-76
2020/12/12 06:39:44;;;;;;;1.60;1.30;;;6.00;98.20;;;;;;5046627;28;20601;-75
2020/12/12 06:42:31;;;;;;;1.60;1.20;;;6.00;98.20;;;;;;5048190;28;20832;-77
2020/12/12 06:44:58;;;;;;;1.60;1.30;;;6.00;98.20;;;;;;5040364;28;20522;-75
2020/12/12 06:47:38;;;;;;;1.60;1.30;;;6.00;98.20;;;;;;5036410;28;20529;-75
2020/12/12 06:50:08;;;;;;;1.60;1.50;;;6.00;98.20;;;;;;5041370;28;20880;-75
2020/12/12 06:52:35;;;;;;;1.60;1.40;;;6.00;98.20;;;;;;5036224;28;20468;-75
2020/12/12 06:55:12;;;;;;;1.60;1.30;;;6.00;98.20;;;;;;5034975;28;20472;-76
2020/12/12 06:57:41;;;;;;;1.60;1.30;;;6.00;98.20;;;;;;5040230;28;20501;-76
2020/12/12 07:00:20;;;;;;;1.60;1.40;;;6.00;98.20;;;;;;5055450;28;20536;-75
2020/12/12 07:02:58;;;;;;;1.60;1.20;;;6.00;98.20;;;;;;5056353;28;20493;-77
2020/12/12 07:05:29;;;;;;;1.60;1.30;;;6.00;98.20;;;;;;5034500;28;20467;-77
2020/12/12 07:08:01;;;;;;;1.60;1.30;;;6.00;98.20;;;;;;5039412;28;20609;-75
2020/12/12 07:10:29;;;;;;;1.60;1.30;;;6.00;98.20;;;;;;5040382;28;20526;-76
2020/12/12 07:12:56;;;;;;;1.60;1.30;;;6.00;98.20;;;;;;5037884;28;20466;-75
2020/12/12 07:15:27;;;;;;;1.60;1.40;;;6.00;98.20;;;;;;5035966;28;20471;-76
2020/12/12 07:17:53;;;;;;;1.60;1.30;;;6.00;98.20;;;;;;5039125;28;20484;-76
2020/12/12 07:20:20;;;;;;;1.70;1.30;;;6.00;98.20;;;;;;5042700;28;20451;-76
2020/12/12 07:22:49;;;;;;;1.60;1.30;;;6.00;98.20;;;;;;5040940;28;21016;-76
2020/12/12 07:25:16;;;;;;;1.60;1.40;;;6.00;98.20;;;;;;5039543;28;20501;-76
2020/12/12 07:27:43;;;;;;;1.60;1.30;;;6.00;98.20;;;;;;5052507;28;20485;-75
2020/12/12 07:30:12;;;;;;;1.60;1.30;;;6.00;98.20;;;;;;5037932;28;20905;-76
2020/12/12 07:32:42;;;;;;;1.60;1.43;;;6.00;98.20;;;;;;5036322;28;20809;-76
2020/12/12 07:35:11;;;;;;;1.60;1.30;;;6.00;98.20;;;;;;5046512;28;20517;-76
2020/12/12 07:37:37;;;;;;;1.60;1.20;;;6.00;98.20;;;;;;5048277;28;20902;-76
2020/12/12 07:40:04;;;;;;;1.60;1.33;;;6.00;98.20;;;;;;5037654;28;20538;-77
2020/12/12 07:42:35;;;;;;;1.60;1.37;;;6.00;98.20;;;;;;5043039;28;20517;-76
2020/12/12 07:45:10;;;;;;;1.60;1.23;;;6.00;98.20;;;;;;5034681;28;20460;-77
2020/12/12 07:47:37;;;;;;;1.53;1.20;;;6.00;98.20;;;;;;5043372;28;20507;-76
2020/12/12 07:50:05;;;;;;;1.60;1.30;;;6.00;98.20;;;;;;5038043;28;20549;-76
2020/12/12 07:52:32;;;;;;;1.70;1.60;;;6.00;98.20;;;;;;5043118;28;20939;-75
2020/12/12 07:55:06;;;;;;;1.60;1.40;;;6.00;98.20;;;;;;5048337;28;20561;-75
2020/12/12 07:57:40;;;;;;;1.60;1.27;;;6.00;98.20;;;;;;5050241;28;20869;-75
2020/12/12 08:00:09;;;;;;;1.60;1.30;;;6.00;98.20;;;;;;5061082;28;20479;-76
2020/12/12 08:02:45;;;;;;;1.60;1.30;;;6.10;98.20;;;;;;5053889;28;20462;-75
2020/12/12 08:05:12;;;;;;;1.60;1.50;;;6.10;98.20;;;;;;5047888;28;20955;-75
2020/12/12 08:07:40;;;;;;;1.60;1.30;;;6.10;98.20;;;;;;5050607;28;20851;-75
2020/12/12 08:10:09;;;;;;;1.60;1.40;;;6.10;98.20;;;;;;5046338;28;20510;-75
2020/12/12 08:12:38;;;;;;;1.60;1.30;;;6.10;98.20;;;;;;5049632;28;20451;-75
2020/12/12 08:15:15;;;;;;;1.60;1.30;;;6.10;98.20;;;;;;5048137;28;20469;-75
2020/12/12 08:17:44;;;;;;;1.60;1.30;;;6.10;98.20;;;;;;5040279;28;20474;-75
2020/12/12 08:20:16;;;;;;;1.60;1.40;;;6.10;98.20;;;;;;5051323;28;20453;-75
2020/12/12 08:22:46;;;;;;;1.60;1.30;;;6.10;98.20;;;;;;5057380;28;20490;-74
2020/12/12 08:25:15;;;;;;;1.60;1.30;;;6.10;98.20;;;;;;5047061;28;20465;-74
2020/12/12 08:27:42;;;;;;;1.60;1.40;;;6.10;98.20;;;;;;5045020;28;20522;-75
2020/12/12 08:30:09;;;;;;;1.60;1.40;;;6.00;98.20;;;;;;5051309;28;20755;-74
2020/12/12 08:32:37;;;;;;;1.60;1.30;;;6.10;98.20;;;;;;5040080;28;20837;-75
2020/12/12 08:35:15;;;;;;;1.60;1.37;;;6.10;98.20;;;;;;5045439;28;20463;-74
2020/12/12 08:37:55;;;;;;;1.60;1.40;;;6.10;98.20;;;;;;5046365;28;20520;-74
2020/12/12 08:40:25;;;;;;;1.60;1.30;;;6.10;98.20;;;;;;5045997;28;21072;-74
2020/12/12 08:43:06;;;;;;;1.60;1.20;;;6.10;98.20;;;;;;5043457;28;20463;-74
2020/12/12 08:45:36;;;;;;;1.60;1.40;;;6.10;98.20;;;;;;5045339;28;20516;-74
2020/12/12 08:48:07;;;;;;;1.70;1.50;;;6.10;98.20;;;;;;5039748;28;20530;-75
2020/12/12 08:50:58;;;;;;;1.60;1.23;;;6.10;98.20;;;;;;5041634;28;20488;-75
2020/12/12 08:53:38;;;;;;;1.60;1.40;;;6.10;98.20;;;;;;5033142;28;20472;-75
2020/12/12 08:56:10;;;;;;;1.60;1.30;;;6.20;98.20;;;;;;5039905;28;20481;-74
2020/12/12 08:58:47;;;;;;;1.60;1.30;;;6.20;98.20;;;;;;5044150;28;20482;-75
2020/12/12 09:01:19;;;;;;;1.60;1.50;;;6.20;98.20;;;;;;5044542;28;20526;-75
2020/12/12 09:04:15;;;;;;;1.70;1.30;;;6.20;98.20;;;;;;5047580;28;20877;-75
2020/12/12 09:06:49;;;;;;;1.60;1.40;;;6.20;98.20;;;;;;5043461;28;20460;-75
2020/12/12 09:09:19;;;;;;;1.60;1.23;;;6.20;98.20;;;;;;5050398;28;20512;-75
2020/12/12 09:11:47;;;;;;;1.60;1.30;;;6.20;98.20;;;;;;5049475;28;21106;-74
2020/12/12 09:14:15;;;;;;;1.60;1.30;;;6.20;98.20;;;;;;5044147;28;20482;-75
2020/12/12 09:16:48;;;;;;;1.60;1.20;;;6.20;98.20;;;;;;5042681;28;20451;-75
2020/12/12 09:19:14;;;;;;;1.70;1.50;;;6.20;98.20;;;;;;5054983;28;20486;-74
2020/12/12 09:21:41;;;;;;;1.60;1.40;;;6.20;98.20;;;;;;5044367;28;20963;-76
2020/12/12 09:24:08;;;;;;;1.60;1.27;;;6.20;98.20;;;;;;5040553;28;20467;-74
2020/12/12 09:26:35;;;;;;;1.67;1.50;;;6.30;98.20;;;;;;5045070;28;20501;-74
2020/12/12 09:29:01;;;;;;;1.60;1.40;;;6.30;98.20;;;;;;5039618;28;20486;-75
2020/12/12 09:31:30;;;;;;;1.60;1.30;;;6.30;98.20;;;;;;5050787;28;20521;-75
2020/12/12 09:33:56;;;;;;;1.60;1.30;;;6.30;98.20;;;;;;5052142;28;20465;-75
2020/12/12 09:36:23;;;;;;;1.60;1.40;;;6.30;98.20;;;;;;5040951;28;20460;-75
2020/12/12 09:38:50;;;;;;;1.60;1.30;;;6.30;98.20;;;;;;5036101;28;20494;-76
2020/12/12 09:41:16;;;;;;;1.60;1.30;;;6.40;98.20;;;;;;5039009;28;20474;-76
2020/12/12 09:43:43;;;;;;;1.60;1.50;;;6.40;98.20;;;;;;5052731;28;20481;-76
2020/12/12 09:46:13;;;;;;;1.60;1.30;;;6.40;98.20;;;;;;5048844;28;20973;-77
2020/12/12 09:48:41;;;;;;;1.60;1.20;;;6.40;98.20;;;;;;5041347;28;20523;-77
2020/12/12 09:51:09;;;;;;;1.60;1.30;;;6.40;98.20;;;;;;5047836;28;20489;-76
2020/12/12 09:53:38;;;;;;;1.63;1.47;;;6.40;98.20;;;;;;5028804;28;20459;-76
2020/12/12 09:56:05;;;;;;;1.60;1.40;;;6.50;98.20;;;;;;5033855;28;20736;-76
2020/12/12 09:58:32;;;;;;;1.60;1.30;;;6.50;98.20;;;;;;5037721;28;20483;-76
2020/12/12 10:00:59;;;;;;;1.87;1.77;;;6.50;98.20;;;;;;5030585;28;20472;-76
2020/12/12 10:03:27;;;;;;;1.63;1.47;;;6.50;98.20;;;;;;5033921;28;20506;-76
2020/12/12 10:05:55;;;;;;;1.60;1.30;;;6.50;98.20;;;;;;5049435;28;20961;-76
2020/12/12 10:08:21;;;;;;;1.63;1.40;;;6.50;98.20;;;;;;5031466;28;20847;-77
2020/12/12 10:10:48;;;;;;;1.60;1.30;;;6.50;98.20;;;;;;5035685;28;20513;-76
2020/12/12 10:13:22;;;;;;;1.60;1.30;;;6.50;98.20;;;;;;5029930;28;20456;-74
2020/12/12 10:15:59;;;;;;;1.70;1.60;;;6.50;98.20;;;;;;5039901;28;20856;-76
2020/12/12 10:18:28;;;;;;;1.67;1.37;;;6.50;98.20;;;;;;5044444;28;20522;-75
2020/12/12 10:20:55;;;;;;;1.63;1.43;;;6.50;98.20;;;;;;5041155;28;20513;-75
2020/12/12 10:23:22;;;;;;;1.67;1.37;;;6.50;98.20;;;;;;5042505;28;20824;-76
2020/12/12 10:25:48;;;;;;;1.60;1.20;;;6.60;98.20;;;;;;5037753;28;21026;-77
2020/12/12 10:28:15;;;;;;;1.60;1.50;;;6.60;98.20;;;;;;5042097;28;20537;-76
2020/12/12 10:30:42;;;;;;;1.63;1.40;;;6.60;98.20;;;;;;5033782;28;20484;-76
2020/12/12 10:33:11;;;;;;;1.60;1.33;;;6.60;98.20;;;;;;5034152;28;20751;-77
2020/12/12 10:35:38;;;;;;;1.60;1.30;;;6.60;98.20;;;;;;5031749;28;20472;-76
2020/12/12 10:38:09;;;;;;;1.60;1.20;;;6.60;98.20;;;;;;5033189;28;21019;-76
2020/12/12 10:40:39;;;;;;;1.60;1.30;;;6.70;98.20;;;;;;5034618;28;21016;-76
2020/12/12 10:43:07;;;;;;;1.70;1.40;;;6.70;98.20;;;;;;5039338;28;20506;-76
2020/12/12 10:45:34;;;;;;;1.60;1.20;;;6.70;98.20;;;;;;5041896;28;20987;-77
2020/12/12 10:48:00;;;;;;;1.60;1.27;;;6.70;98.20;;;;;;5039084;28;20859;-76
2020/12/12 10:50:32;;;;;;;1.60;1.20;;;6.70;98.20;;;;;;5033540;28;20487;-76
2020/12/12 10:52:59;;;;;;;1.60;1.30;;;6.70;98.20;;;;;;5035100;28;20474;-77
2020/12/12 10:55:26;;;;;;;1.60;1.20;;;6.70;98.20;;;;;;5025594;28;20464;-76
2020/12/12 10:57:53;;;;;;;1.60;1.30;;;6.70;98.20;;;;;;5037047;28;20487;-76
2020/12/12 11:00:25;;;;;;;1.63;1.40;;;6.70;98.20;;;;;;5029513;28;20570;-76
2020/12/12 11:02:52;;;;;;;1.60;1.33;;;6.70;98.20;;;;;;5034025;28;20768;-76
2020/12/12 11:05:19;;;;;;;1.60;1.30;;;6.70;98.20;;;;;;5030275;28;21060;-76
2020/12/12 11:07:45;;;;;;;1.60;1.40;;;6.80;98.20;;;;;;5027643;28;20488;-76
2020/12/12 11:10:13;;;;;;;1.60;1.33;;;6.80;98.20;;;;;;5031898;28;20490;-76
2020/12/12 11:12:40;;;;;;;1.60;1.30;;;6.80;98.20;;;;;;5037282;28;20467;-77
2020/12/12 11:15:08;;;;;;;1.60;1.33;;;6.80;98.20;;;;;;5029394;28;20494;-76
2020/12/12 11:17:35;;;;;;;1.60;1.20;;;6.80;98.20;;;;;;5037687;28;20476;-76
2020/12/12 11:20:06;;;;;;;1.60;1.30;;;6.80;98.20;;;;;;5043481;28;20507;-76
2020/12/12 11:22:32;;;;;;;1.60;1.30;;;6.90;98.20;;;;;;5038277;28;20463;-76
2020/12/12 11:24:58;;;;;;;1.60;1.30;;;6.90;98.20;;;;;;5045775;28;20843;-76
2020/12/12 11:27:25;;;;;;;1.60;1.30;;;6.90;98.20;;;;;;5039726;28;20993;-76
2020/12/12 11:29:56;;;;;;;1.60;1.30;;;7.00;98.20;;;;;;5032735;28;20478;-76
2020/12/12 11:32:22;;;;;;;1.60;1.23;;;7.00;98.20;;;;;;5029214;28;20520;-77
2020/12/12 11:34:57;;;;;;;1.60;1.40;;;7.10;98.20;;;;;;5029311;28;20471;-77
2020/12/12 11:37:32;;;;;;;1.60;1.30;;;7.10;98.20;;;;;;5031976;28;20494;-76
2020/12/12 11:40:09;;;;;;;1.60;1.20;;;7.10;98.20;;;;;;5034524;28;20673;-76
2020/12/12 11:43:04;;;;;;;1.60;1.30;;;7.10;98.20;;;;;;5031303;28;20470;-76
2020/12/12 11:48:25;;;;;;;1.60;1.20;;;7.10;98.20;;;;;;5026003;28;20957;-76
2020/12/12 11:50:51;;;;;;;1.63;1.30;;;7.10;98.20;;;;;;5031774;28;20799;-77
2020/12/12 11:53:21;;;;;;;1.60;1.30;;;7.10;98.20;;;;;;5030489;28;20471;-76
2020/12/12 11:55:51;;;;;;;1.70;1.43;;;7.20;98.20;;;;;;5028305;28;20991;-76
2020/12/12 11:58:17;;;;;;;1.67;1.40;;;7.20;98.20;;;;;;5032753;28;20486;-76
2020/12/12 12:00:50;;;;;;;1.60;1.20;;;7.20;98.20;;;;;;5030120;28;20464;-76
2020/12/12 12:03:20;;;;;;;2.03;1.83;;;7.20;98.20;;;;;;5031748;28;20833;-77
2020/12/12 12:05:57;;;;;;;1.67;1.30;;;7.30;98.20;;;;;;5034590;28;20534;-77
2020/12/12 12:08:30;;;;;;;1.60;1.23;;;7.30;98.20;;;;;;5026877;28;20593;-77
2020/12/12 12:11:15;;;;;;;1.60;1.20;;;7.30;98.20;;;;;;5030301;28;20483;-77
2020/12/12 12:13:46;;;;;;;1.63;1.23;;;7.40;98.20;;;;;;5034394;28;21034;-77
2020/12/12 12:16:27;;;;;;;1.63;1.30;;;7.50;98.20;;;;;;5039079;28;20498;-76
2020/12/12 12:18:57;;;;;;;1.70;1.40;;;7.50;98.20;;;;;;5033834;28;20490;-75
2020/12/12 12:21:25;;;;;;;1.60;1.30;;;7.60;98.20;;;;;;5037712;28;20506;-76
2020/12/12 12:23:55;;;;;;;1.60;1.30;;;7.60;98.20;;;;;;5035922;28;20959;-76
2020/12/12 12:26:27;;;;;;;1.63;1.30;;;7.60;98.20;;;;;;5028459;28;21022;-76
2020/12/12 12:28:55;;;;;;;1.70;1.37;;;7.60;98.20;;;;;;5033831;28;20486;-76
2020/12/12 12:31:23;;;;;;;1.60;1.20;;;7.60;98.20;;;;;;5029494;28;20520;-75
2020/12/12 12:33:50;;;;;;;1.60;1.23;;;7.60;98.20;;;;;;5031076;28;20542;-76
2020/12/12 12:36:16;;;;;;;1.60;1.20;;;7.70;98.20;;;;;;5028448;28;20468;-76
2020/12/12 12:38:45;;;;;;;1.60;1.20;;;7.70;98.20;;;;;;5039466;28;20486;-77
2020/12/12 12:41:12;;;;;;;1.60;1.20;;;7.70;98.20;;;;;;5036875;28;20471;-77
2020/12/12 12:43:38;;;;;;;1.60;1.20;;;7.70;98.20;;;;;;5046660;28;20458;-76
2020/12/12 12:46:07;;;;;;;1.60;1.20;;;7.70;98.20;;;;;;5040647;28;20957;-76
2020/12/12 12:48:35;;;;;;;1.60;1.20;;;7.70;98.20;;;;;;5033068;28;20532;-76
2020/12/12 12:51:01;;;;;;;1.60;1.30;;;7.70;98.20;;;;;;5031355;28;20479;-76
2020/12/12 12:53:28;;;;;;;1.60;1.30;;;7.70;98.20;;;;;;5036469;28;20582;-76
2020/12/12 12:55:54;;;;;;;1.63;1.20;;;7.70;98.20;;;;;;5033154;28;20527;-75
2020/12/12 12:58:21;;;;;;;1.67;1.37;;;7.70;98.20;;;;;;5036950;28;20493;-75
2020/12/12 13:01:05;;;;;;;1.63;1.20;;;7.70;98.20;;;;;;5038834;28;20459;-75
2020/12/12 13:03:33;;;;;;;1.63;1.30;;;7.70;98.20;;;;;;5030660;28;20459;-75
2020/12/12 13:06:01;;;;;;;1.67;1.40;;;7.70;98.20;;;;;;5046865;23;20498;-75
2020/12/12 13:08:27;;;;;;;1.60;1.30;;;7.70;98.20;;;;;;5034966;28;20545;-73